sensor_id;sensor_type;location;lat;lon;timestamp;P1;durP1;ratioP1;P2;durP2;ratioP2
5977;SDS011;3015;51.390;12.256;2022-09-23T00:01:17;9.20;;;8.40;;
5977;SDS011;3015;51.390;12.256;2022-09-23T00:03:44;10.20;;;8.65;;
5977;SDS011;3015;51.390;12.256;2022-09-23T00:06:11;11.10;;;9.95;;
5977;SDS011;3015;51.390;12.256;2022-09-23T00:08:37;9.88;;;9.07;;
5977;SDS011;3015;51.390;12.256;2022-09-23T00:11:11;10.20;;;9.25;;
5977;SDS011;3015;51.390;12.256;2022-09-23T00:13:38;9.48;;;8.60;;
5977;SDS011;3015;51.390;12.256;2022-09-23T00:16:05;9.98;;;9.07;;
5977;SDS011;3015;51.390;12.256;2022-09-23T00:18:31;9.52;;;8.73;;
5977;SDS011;3015;51.390;12.256;2022-09-23T00:21:01;8.05;;;7.45;;
5977;SDS011;3015;51.390;12.256;2022-09-23T00:23:27;8.93;;;8.02;;
5977;SDS011;3015;51.390;12.256;2022-09-23T00:25:57;8.02;;;7.35;;
5977;SDS011;3015;51.390;12.256;2022-09-23T00:28:23;8.02;;;7.43;;
5977;SDS011;3015;51.390;12.256;2022-09-23T00:30:49;8.00;;;7.20;;
5977;SDS011;3015;51.390;12.256;2022-09-23T00:33:16;8.82;;;7.93;;
5977;SDS011;3015;51.390;12.256;2022-09-23T00:35:42;7.70;;;7.10;;
5977;SDS011;3015;51.390;12.256;2022-09-23T00:38:08;7.45;;;6.85;;
5977;SDS011;3015;51.390;12.256;2022-09-23T00:40:34;8.83;;;8.13;;
5977;SDS011;3015;51.390;12.256;2022-09-23T00:43:00;8.60;;;7.75;;
5977;SDS011;3015;51.390;12.256;2022-09-23T00:45:26;8.13;;;7.18;;
5977;SDS011;3015;51.390;12.256;2022-09-23T00:47:57;8.70;;;7.90;;
5977;SDS011;3015;51.390;12.256;2022-09-23T00:50:27;8.70;;;8.10;;
5977;SDS011;3015;51.390;12.256;2022-09-23T00:52:59;7.20;;;6.50;;
5977;SDS011;3015;51.390;12.256;2022-09-23T00:55:27;8.32;;;7.63;;
5977;SDS011;3015;51.390;12.256;2022-09-23T00:57:55;8.35;;;7.75;;
5977;SDS011;3015;51.390;12.256;2022-09-23T01:00:22;6.90;;;6.40;;
5977;SDS011;3015;51.390;12.256;2022-09-23T01:02:49;7.93;;;7.07;;
5977;SDS011;3015;51.390;12.256;2022-09-23T01:08:19;6.80;;;6.30;;
5977;SDS011;3015;51.390;12.256;2022-09-23T01:10:50;7.32;;;6.70;;
5977;SDS011;3015;51.390;12.256;2022-09-23T01:13:25;7.25;;;6.65;;
5977;SDS011;3015;51.390;12.256;2022-09-23T01:16:00;7.18;;;6.68;;
5977;SDS011;3015;51.390;12.256;2022-09-23T01:18:34;7.60;;;7.00;;
5977;SDS011;3015;51.390;12.256;2022-09-23T01:34:22;7.85;;;7.20;;
5977;SDS011;3015;51.390;12.256;2022-09-23T01:36:50;7.93;;;7.32;;
5977;SDS011;3015;51.390;12.256;2022-09-23T01:44:26;8.98;;;8.30;;
5977;SDS011;3015;51.390;12.256;2022-09-23T01:47:04;8.88;;;8.05;;
5977;SDS011;3015;51.390;12.256;2022-09-23T01:52:14;8.93;;;8.13;;
5977;SDS011;3015;51.390;12.256;2022-09-23T01:54:56;9.60;;;8.80;;
5977;SDS011;3015;51.390;12.256;2022-09-23T01:57:36;10.88;;;9.38;;
5977;SDS011;3015;51.390;12.256;2022-09-23T02:00:13;8.98;;;8.13;;
5977;SDS011;3015;51.390;12.256;2022-09-23T02:02:41;8.32;;;7.65;;
5977;SDS011;3015;51.390;12.256;2022-09-23T02:05:15;9.55;;;8.57;;
5977;SDS011;3015;51.390;12.256;2022-09-23T02:07:47;10.63;;;8.75;;
5977;SDS011;3015;51.390;12.256;2022-09-23T02:10:18;11.10;;;8.48;;
5977;SDS011;3015;51.390;12.256;2022-09-23T02:12:46;9.35;;;8.48;;
5977;SDS011;3015;51.390;12.256;2022-09-23T02:15:24;9.32;;;8.55;;
5977;SDS011;3015;51.390;12.256;2022-09-23T02:17:56;10.20;;;9.23;;
5977;SDS011;3015;51.390;12.256;2022-09-23T02:20:29;9.20;;;8.30;;
5977;SDS011;3015;51.390;12.256;2022-09-23T02:25:28;8.50;;;7.80;;
5977;SDS011;3015;51.390;12.256;2022-09-23T02:28:23;8.32;;;7.57;;
5977;SDS011;3015;51.390;12.256;2022-09-23T02:30:45;8.35;;;7.78;;
5977;SDS011;3015;51.390;12.256;2022-09-23T02:33:23;8.90;;;8.00;;
5977;SDS011;3015;51.390;12.256;2022-09-23T02:35:52;10.18;;;9.23;;
5977;SDS011;3015;51.390;12.256;2022-09-23T02:40:56;11.40;;;9.80;;
5977;SDS011;3015;51.390;12.256;2022-09-23T02:45:59;9.50;;;8.32;;
5977;SDS011;3015;51.390;12.256;2022-09-23T02:48:27;9.35;;;8.57;;
5977;SDS011;3015;51.390;12.256;2022-09-23T02:50:55;9.82;;;8.93;;
5977;SDS011;3015;51.390;12.256;2022-09-23T02:53:23;9.63;;;8.82;;
5977;SDS011;3015;51.390;12.256;2022-09-23T02:55:49;8.48;;;7.88;;
5977;SDS011;3015;51.390;12.256;2022-09-23T02:58:15;9.20;;;8.50;;
5977;SDS011;3015;51.390;12.256;2022-09-23T03:05:53;8.73;;;7.93;;
5977;SDS011;3015;51.390;12.256;2022-09-23T03:11:07;9.70;;;8.88;;
5977;SDS011;3015;51.390;12.256;2022-09-23T03:21:28;12.70;;;8.63;;
5977;SDS011;3015;51.390;12.256;2022-09-23T03:23:57;9.98;;;9.18;;
5977;SDS011;3015;51.390;12.256;2022-09-23T03:26:28;9.43;;;8.48;;
5977;SDS011;3015;51.390;12.256;2022-09-23T03:28:55;9.93;;;8.93;;
5977;SDS011;3015;51.390;12.256;2022-09-23T03:31:22;9.05;;;8.45;;
5977;SDS011;3015;51.390;12.256;2022-09-23T03:33:49;9.57;;;8.75;;
5977;SDS011;3015;51.390;12.256;2022-09-23T03:36:18;8.98;;;8.27;;
5977;SDS011;3015;51.390;12.256;2022-09-23T03:39:05;9.57;;;8.88;;
5977;SDS011;3015;51.390;12.256;2022-09-23T03:41:35;9.63;;;8.93;;
5977;SDS011;3015;51.390;12.256;2022-09-23T03:44:01;9.75;;;8.75;;
5977;SDS011;3015;51.390;12.256;2022-09-23T03:46:28;10.38;;;9.57;;
5977;SDS011;3015;51.390;12.256;2022-09-23T03:48:56;8.65;;;7.95;;
5977;SDS011;3015;51.390;12.256;2022-09-23T03:51:24;8.98;;;8.27;;
5977;SDS011;3015;51.390;12.256;2022-09-23T03:53:50;9.98;;;9.18;;
5977;SDS011;3015;51.390;12.256;2022-09-23T03:56:16;9.17;;;8.47;;
5977;SDS011;3015;51.390;12.256;2022-09-23T03:58:42;10.60;;;9.80;;
5977;SDS011;3015;51.390;12.256;2022-09-23T04:01:10;9.80;;;8.88;;
5977;SDS011;3015;51.390;12.256;2022-09-23T04:03:38;9.45;;;8.75;;
5977;SDS011;3015;51.390;12.256;2022-09-23T04:06:05;9.15;;;8.35;;
5977;SDS011;3015;51.390;12.256;2022-09-23T04:08:31;12.80;;;11.60;;
5977;SDS011;3015;51.390;12.256;2022-09-23T04:10:58;11.25;;;10.35;;
5977;SDS011;3015;51.390;12.256;2022-09-23T04:13:25;9.85;;;9.05;;
5977;SDS011;3015;51.390;12.256;2022-09-23T04:15:51;9.75;;;8.88;;
5977;SDS011;3015;51.390;12.256;2022-09-23T04:18:17;10.30;;;9.50;;
5977;SDS011;3015;51.390;12.256;2022-09-23T04:20:43;9.87;;;9.07;;
5977;SDS011;3015;51.390;12.256;2022-09-23T04:23:09;9.97;;;9.10;;
5977;SDS011;3015;51.390;12.256;2022-09-23T04:25:35;9.70;;;8.73;;
5977;SDS011;3015;51.390;12.256;2022-09-23T04:28:01;10.35;;;9.43;;
5977;SDS011;3015;51.390;12.256;2022-09-23T04:30:27;9.60;;;8.70;;
5977;SDS011;3015;51.390;12.256;2022-09-23T04:32:53;11.57;;;10.00;;
5977;SDS011;3015;51.390;12.256;2022-09-23T04:35:19;10.60;;;9.50;;
5977;SDS011;3015;51.390;12.256;2022-09-23T04:37:46;11.18;;;10.07;;
5977;SDS011;3015;51.390;12.256;2022-09-23T04:40:12;11.00;;;10.10;;
5977;SDS011;3015;51.390;12.256;2022-09-23T04:42:38;10.77;;;9.77;;
5977;SDS011;3015;51.390;12.256;2022-09-23T04:45:05;11.15;;;10.10;;
5977;SDS011;3015;51.390;12.256;2022-09-23T04:47:31;9.90;;;9.10;;
5977;SDS011;3015;51.390;12.256;2022-09-23T04:49:57;11.60;;;10.43;;
5977;SDS011;3015;51.390;12.256;2022-09-23T04:52:23;12.38;;;9.55;;
5977;SDS011;3015;51.390;12.256;2022-09-23T04:54:49;9.30;;;8.60;;
5977;SDS011;3015;51.390;12.256;2022-09-23T04:57:15;9.37;;;8.67;;
5977;SDS011;3015;51.390;12.256;2022-09-23T04:59:41;9.17;;;8.37;;
5977;SDS011;3015;51.390;12.256;2022-09-23T05:02:09;10.30;;;9.40;;
5977;SDS011;3015;51.390;12.256;2022-09-23T05:04:36;9.95;;;9.10;;
5977;SDS011;3015;51.390;12.256;2022-09-23T05:07:02;9.38;;;8.68;;
5977;SDS011;3015;51.390;12.256;2022-09-23T05:09:28;10.32;;;9.43;;
5977;SDS011;3015;51.390;12.256;2022-09-23T05:11:55;8.85;;;8.25;;
5977;SDS011;3015;51.390;12.256;2022-09-23T05:14:21;9.83;;;8.83;;
5977;SDS011;3015;51.390;12.256;2022-09-23T05:16:47;10.40;;;9.40;;
5977;SDS011;3015;51.390;12.256;2022-09-23T05:19:12;10.60;;;9.70;;
5977;SDS011;3015;51.390;12.256;2022-09-23T05:21:39;10.32;;;9.43;;
5977;SDS011;3015;51.390;12.256;2022-09-23T05:24:05;10.57;;;9.67;;
5977;SDS011;3015;51.390;12.256;2022-09-23T05:26:31;10.50;;;9.50;;
5977;SDS011;3015;51.390;12.256;2022-09-23T05:28:57;11.25;;;10.00;;
5977;SDS011;3015;51.390;12.256;2022-09-23T05:31:27;10.35;;;9.45;;
5977;SDS011;3015;51.390;12.256;2022-09-23T05:33:57;11.02;;;9.93;;
5977;SDS011;3015;51.390;12.256;2022-09-23T05:36:24;10.93;;;9.88;;
5977;SDS011;3015;51.390;12.256;2022-09-23T05:38:50;10.55;;;9.55;;
5977;SDS011;3015;51.390;12.256;2022-09-23T05:41:17;12.25;;;11.05;;
5977;SDS011;3015;51.390;12.256;2022-09-23T05:43:43;11.55;;;10.55;;
5977;SDS011;3015;51.390;12.256;2022-09-23T05:46:11;12.13;;;11.10;;
5977;SDS011;3015;51.390;12.256;2022-09-23T05:48:37;12.98;;;11.77;;
5977;SDS011;3015;51.390;12.256;2022-09-23T05:51:04;13.10;;;11.80;;
5977;SDS011;3015;51.390;12.256;2022-09-23T05:53:35;11.23;;;10.30;;
5977;SDS011;3015;51.390;12.256;2022-09-23T05:56:02;12.57;;;11.32;;
5977;SDS011;3015;51.390;12.256;2022-09-23T05:58:28;12.50;;;11.48;;
5977;SDS011;3015;51.390;12.256;2022-09-23T06:00:54;12.00;;;10.90;;
5977;SDS011;3015;51.390;12.256;2022-09-23T06:03:21;11.85;;;10.85;;
5977;SDS011;3015;51.390;12.256;2022-09-23T06:05:47;12.25;;;11.25;;
5977;SDS011;3015;51.390;12.256;2022-09-23T06:08:16;12.90;;;11.80;;
5977;SDS011;3015;51.390;12.256;2022-09-23T06:10:42;12.13;;;10.90;;
5977;SDS011;3015;51.390;12.256;2022-09-23T06:13:09;11.65;;;10.75;;
5977;SDS011;3015;51.390;12.256;2022-09-23T06:15:35;12.80;;;11.60;;
5977;SDS011;3015;51.390;12.256;2022-09-23T06:18:01;10.30;;;9.50;;
5977;SDS011;3015;51.390;12.256;2022-09-23T06:20:28;11.38;;;10.23;;
5977;SDS011;3015;51.390;12.256;2022-09-23T06:22:54;10.35;;;9.45;;
5977;SDS011;3015;51.390;12.256;2022-09-23T06:25:22;10.45;;;9.52;;
5977;SDS011;3015;51.390;12.256;2022-09-23T06:27:54;8.50;;;7.82;;
5977;SDS011;3015;51.390;12.256;2022-09-23T06:30:21;12.48;;;11.50;;
5977;SDS011;3015;51.390;12.256;2022-09-23T06:32:50;10.32;;;9.50;;
5977;SDS011;3015;51.390;12.256;2022-09-23T06:35:20;9.70;;;8.80;;
5977;SDS011;3015;51.390;12.256;2022-09-23T06:37:47;10.48;;;7.70;;
5977;SDS011;3015;51.390;12.256;2022-09-23T06:40:13;7.70;;;7.10;;
5977;SDS011;3015;51.390;12.256;2022-09-23T06:42:42;7.83;;;6.70;;
5977;SDS011;3015;51.390;12.256;2022-09-23T06:45:09;7.90;;;6.97;;
5977;SDS011;3015;51.390;12.256;2022-09-23T06:47:37;11.50;;;7.53;;
5977;SDS011;3015;51.390;12.256;2022-09-23T06:50:03;7.40;;;6.83;;
5977;SDS011;3015;51.390;12.256;2022-09-23T06:52:29;6.77;;;6.17;;
5977;SDS011;3015;51.390;12.256;2022-09-23T06:54:55;5.37;;;5.07;;
5977;SDS011;3015;51.390;12.256;2022-09-23T06:57:21;7.00;;;6.30;;
5977;SDS011;3015;51.390;12.256;2022-09-23T06:59:48;6.47;;;5.97;;
5977;SDS011;3015;51.390;12.256;2022-09-23T07:02:14;6.57;;;6.10;;
5977;SDS011;3015;51.390;12.256;2022-09-23T07:04:40;5.80;;;5.40;;
5977;SDS011;3015;51.390;12.256;2022-09-23T07:07:05;8.53;;;5.77;;
5977;SDS011;3015;51.390;12.256;2022-09-23T07:09:31;5.67;;;5.17;;
5977;SDS011;3015;51.390;12.256;2022-09-23T07:11:57;5.50;;;5.00;;
5977;SDS011;3015;51.390;12.256;2022-09-23T07:14:23;6.70;;;5.70;;
5977;SDS011;3015;51.390;12.256;2022-09-23T07:16:48;5.60;;;5.20;;
5977;SDS011;3015;51.390;12.256;2022-09-23T07:19:15;6.70;;;5.60;;
5977;SDS011;3015;51.390;12.256;2022-09-23T07:21:41;6.30;;;5.47;;
5977;SDS011;3015;51.390;12.256;2022-09-23T07:24:07;6.33;;;5.43;;
5977;SDS011;3015;51.390;12.256;2022-09-23T07:26:32;5.87;;;5.37;;
5977;SDS011;3015;51.390;12.256;2022-09-23T07:28:59;5.90;;;5.03;;
5977;SDS011;3015;51.390;12.256;2022-09-23T07:31:29;5.60;;;5.10;;
5977;SDS011;3015;51.390;12.256;2022-09-23T07:33:56;5.67;;;5.33;;
5977;SDS011;3015;51.390;12.256;2022-09-23T07:36:23;5.53;;;5.03;;
5977;SDS011;3015;51.390;12.256;2022-09-23T07:38:52;5.50;;;5.10;;
5977;SDS011;3015;51.390;12.256;2022-09-23T07:41:23;6.00;;;5.50;;
5977;SDS011;3015;51.390;12.256;2022-09-23T07:43:51;5.83;;;5.40;;
5977;SDS011;3015;51.390;12.256;2022-09-23T07:46:23;5.50;;;5.10;;
5977;SDS011;3015;51.390;12.256;2022-09-23T07:48:51;6.50;;;5.20;;
5977;SDS011;3015;51.390;12.256;2022-09-23T07:51:19;5.30;;;5.00;;
5977;SDS011;3015;51.390;12.256;2022-09-23T07:53:46;6.13;;;5.63;;
5977;SDS011;3015;51.390;12.256;2022-09-23T07:56:13;7.20;;;6.07;;
5977;SDS011;3015;51.390;12.256;2022-09-23T07:58:39;6.00;;;5.60;;
5977;SDS011;3015;51.390;12.256;2022-09-23T08:01:07;5.73;;;5.33;;
5977;SDS011;3015;51.390;12.256;2022-09-23T08:03:34;6.37;;;5.87;;
5977;SDS011;3015;51.390;12.256;2022-09-23T08:06:07;6.17;;;5.53;;
5977;SDS011;3015;51.390;12.256;2022-09-23T08:08:36;5.73;;;5.13;;
5977;SDS011;3015;51.390;12.256;2022-09-23T08:11:05;6.20;;;5.80;;
5977;SDS011;3015;51.390;12.256;2022-09-23T08:13:33;6.77;;;6.27;;
5977;SDS011;3015;51.390;12.256;2022-09-23T08:15:59;7.13;;;6.60;;
5977;SDS011;3015;51.390;12.256;2022-09-23T08:18:25;5.50;;;5.00;;
5977;SDS011;3015;51.390;12.256;2022-09-23T08:20:51;8.07;;;7.50;;
5977;SDS011;3015;51.390;12.256;2022-09-23T08:23:17;5.30;;;5.00;;
5977;SDS011;3015;51.390;12.256;2022-09-23T08:25:44;6.13;;;5.57;;
5977;SDS011;3015;51.390;12.256;2022-09-23T08:28:11;5.33;;;4.90;;
5977;SDS011;3015;51.390;12.256;2022-09-23T08:30:41;6.83;;;6.40;;
5977;SDS011;3015;51.390;12.256;2022-09-23T08:33:08;5.60;;;5.10;;
5977;SDS011;3015;51.390;12.256;2022-09-23T08:35:35;10.00;;;5.77;;
5977;SDS011;3015;51.390;12.256;2022-09-23T08:38:00;6.43;;;5.60;;
5977;SDS011;3015;51.390;12.256;2022-09-23T08:40:26;5.83;;;5.33;;
5977;SDS011;3015;51.390;12.256;2022-09-23T08:42:52;5.80;;;5.30;;
5977;SDS011;3015;51.390;12.256;2022-09-23T08:45:22;5.50;;;5.03;;
5977;SDS011;3015;51.390;12.256;2022-09-23T08:50:51;5.10;;;4.80;;
5977;SDS011;3015;51.390;12.256;2022-09-23T08:53:23;5.43;;;5.13;;
5977;SDS011;3015;51.390;12.256;2022-09-23T08:56:13;6.00;;;5.60;;
5977;SDS011;3015;51.390;12.256;2022-09-23T09:09:32;5.53;;;5.13;;
5977;SDS011;3015;51.390;12.256;2022-09-23T09:17:26;5.30;;;5.00;;
5977;SDS011;3015;51.390;12.256;2022-09-23T09:20:20;4.63;;;4.33;;
5977;SDS011;3015;51.390;12.256;2022-09-23T09:22:59;5.33;;;4.83;;
5977;SDS011;3015;51.390;12.256;2022-09-23T09:25:37;4.87;;;4.57;;
5977;SDS011;3015;51.390;12.256;2022-09-23T09:28:23;4.73;;;4.40;;
5977;SDS011;3015;51.390;12.256;2022-09-23T09:39:11;4.90;;;4.43;;
5977;SDS011;3015;51.390;12.256;2022-09-23T09:41:39;4.80;;;4.50;;
5977;SDS011;3015;51.390;12.256;2022-09-23T09:44:15;4.77;;;4.47;;
5977;SDS011;3015;51.390;12.256;2022-09-23T09:46:52;4.90;;;4.60;;
5977;SDS011;3015;51.390;12.256;2022-09-23T09:49:33;4.63;;;4.33;;
5977;SDS011;3015;51.390;12.256;2022-09-23T09:54:43;4.70;;;4.40;;
5977;SDS011;3015;51.390;12.256;2022-09-23T09:57:21;4.20;;;4.00;;
5977;SDS011;3015;51.390;12.256;2022-09-23T09:59:55;3.83;;;3.63;;
5977;SDS011;3015;51.390;12.256;2022-09-23T10:02:24;4.63;;;4.23;;
5977;SDS011;3015;51.390;12.256;2022-09-23T10:04:59;4.53;;;4.23;;
5977;SDS011;3015;51.390;12.256;2022-09-23T10:07:31;3.73;;;3.50;;
5977;SDS011;3015;51.390;12.256;2022-09-23T10:10:10;4.60;;;4.30;;
5977;SDS011;3015;51.390;12.256;2022-09-23T10:12:50;4.13;;;3.93;;
5977;SDS011;3015;51.390;12.256;2022-09-23T10:15:27;4.83;;;3.63;;
5977;SDS011;3015;51.390;12.256;2022-09-23T10:17:54;4.30;;;4.00;;
5977;SDS011;3015;51.390;12.256;2022-09-23T10:20:21;4.30;;;4.00;;
5977;SDS011;3015;51.390;12.256;2022-09-23T10:22:46;4.70;;;4.40;;
5977;SDS011;3015;51.390;12.256;2022-09-23T10:25:18;4.60;;;4.40;;
5977;SDS011;3015;51.390;12.256;2022-09-23T10:27:48;3.93;;;3.73;;
5977;SDS011;3015;51.390;12.256;2022-09-23T10:32:47;5.40;;;4.90;;
5977;SDS011;3015;51.390;12.256;2022-09-23T10:35:18;4.47;;;4.27;;
5977;SDS011;3015;51.390;12.256;2022-09-23T10:43:17;5.47;;;5.10;;
5977;SDS011;3015;51.390;12.256;2022-09-23T10:46:24;5.27;;;4.50;;
5977;SDS011;3015;51.390;12.256;2022-09-23T11:05:32;5.10;;;4.80;;
5977;SDS011;3015;51.390;12.256;2022-09-23T11:13:38;4.73;;;4.33;;
5977;SDS011;3015;51.390;12.256;2022-09-23T11:31:58;6.03;;;4.70;;
5977;SDS011;3015;51.390;12.256;2022-09-23T11:37:42;5.13;;;4.83;;
5977;SDS011;3015;51.390;12.256;2022-09-23T11:40:31;4.63;;;4.40;;
5977;SDS011;3015;51.390;12.256;2022-09-23T11:43:04;4.20;;;4.00;;
5977;SDS011;3015;51.390;12.256;2022-09-23T11:45:52;4.10;;;3.80;;
5977;SDS011;3015;51.390;12.256;2022-09-23T11:48:38;4.10;;;3.70;;
5977;SDS011;3015;51.390;12.256;2022-09-23T11:56:37;4.97;;;4.67;;
5977;SDS011;3015;51.390;12.256;2022-09-23T12:04:47;4.13;;;3.53;;
5977;SDS011;3015;51.390;12.256;2022-09-23T12:10:18;3.83;;;3.63;;
5977;SDS011;3015;51.390;12.256;2022-09-23T12:26:49;4.90;;;3.87;;
5977;SDS011;3015;51.390;12.256;2022-09-23T12:29:20;4.33;;;4.03;;
5977;SDS011;3015;51.390;12.256;2022-09-23T12:31:48;4.37;;;4.07;;
5977;SDS011;3015;51.390;12.256;2022-09-23T12:34:21;4.73;;;4.17;;
5977;SDS011;3015;51.390;12.256;2022-09-23T12:36:52;4.50;;;4.20;;
5977;SDS011;3015;51.390;12.256;2022-09-23T12:41:57;4.67;;;4.37;;
5977;SDS011;3015;51.390;12.256;2022-09-23T12:44:30;3.43;;;3.33;;
5977;SDS011;3015;51.390;12.256;2022-09-23T12:49:39;4.47;;;4.17;;
5977;SDS011;3015;51.390;12.256;2022-09-23T12:54:41;3.93;;;3.73;;
5977;SDS011;3015;51.390;12.256;2022-09-23T13:00:20;3.20;;;3.10;;
5977;SDS011;3015;51.390;12.256;2022-09-23T13:02:56;3.47;;;3.27;;
5977;SDS011;3015;51.390;12.256;2022-09-23T13:05:52;2.73;;;2.63;;
5977;SDS011;3015;51.390;12.256;2022-09-23T13:08:41;3.57;;;3.37;;
5977;SDS011;3015;51.390;12.256;2022-09-23T13:11:26;5.87;;;3.00;;
5977;SDS011;3015;51.390;12.256;2022-09-23T13:13:54;3.63;;;3.37;;
5977;SDS011;3015;51.390;12.256;2022-09-23T13:16:35;3.80;;;3.50;;
5977;SDS011;3015;51.390;12.256;2022-09-23T13:29:37;3.00;;;2.80;;
5977;SDS011;3015;51.390;12.256;2022-09-23T13:32:30;2.90;;;2.80;;
5977;SDS011;3015;51.390;12.256;2022-09-23T13:35:12;3.07;;;2.80;;
5977;SDS011;3015;51.390;12.256;2022-09-23T13:37:49;2.93;;;2.73;;
5977;SDS011;3015;51.390;12.256;2022-09-23T13:42:53;2.70;;;2.50;;
5977;SDS011;3015;51.390;12.256;2022-09-23T13:45:47;3.17;;;3.07;;
5977;SDS011;3015;51.390;12.256;2022-09-23T13:48:14;3.83;;;3.20;;
5977;SDS011;3015;51.390;12.256;2022-09-23T13:50:46;2.70;;;2.60;;
5977;SDS011;3015;51.390;12.256;2022-09-23T13:53:31;3.37;;;3.17;;
5977;SDS011;3015;51.390;12.256;2022-09-23T13:55:58;3.43;;;2.90;;
5977;SDS011;3015;51.390;12.256;2022-09-23T13:58:37;3.00;;;2.90;;
5977;SDS011;3015;51.390;12.256;2022-09-23T14:01:06;3.10;;;2.90;;
5977;SDS011;3015;51.390;12.256;2022-09-23T14:03:52;2.90;;;2.80;;
5977;SDS011;3015;51.390;12.256;2022-09-23T14:06:18;3.00;;;2.90;;
5977;SDS011;3015;51.390;12.256;2022-09-23T14:08:44;3.40;;;3.00;;
5977;SDS011;3015;51.390;12.256;2022-09-23T14:11:15;3.67;;;3.10;;
5977;SDS011;3015;51.390;12.256;2022-09-23T14:13:43;2.70;;;2.60;;
5977;SDS011;3015;51.390;12.256;2022-09-23T14:16:10;2.70;;;2.60;;
5977;SDS011;3015;51.390;12.256;2022-09-23T14:18:44;2.57;;;2.37;;
5977;SDS011;3015;51.390;12.256;2022-09-23T14:21:31;2.90;;;2.70;;
5977;SDS011;3015;51.390;12.256;2022-09-23T14:26:45;2.80;;;2.70;;
5977;SDS011;3015;51.390;12.256;2022-09-23T14:29:17;3.20;;;3.00;;
5977;SDS011;3015;51.390;12.256;2022-09-23T14:32:03;3.40;;;3.10;;
5977;SDS011;3015;51.390;12.256;2022-09-23T14:34:43;3.70;;;3.40;;
5977;SDS011;3015;51.390;12.256;2022-09-23T14:37:29;3.60;;;2.77;;
5977;SDS011;3015;51.390;12.256;2022-09-23T14:40:25;3.50;;;3.10;;
5977;SDS011;3015;51.390;12.256;2022-09-23T14:45:54;3.50;;;3.20;;
5977;SDS011;3015;51.390;12.256;2022-09-23T14:48:22;4.90;;;3.33;;
5977;SDS011;3015;51.390;12.256;2022-09-23T14:50:50;3.03;;;2.93;;
5977;SDS011;3015;51.390;12.256;2022-09-23T14:55:43;3.17;;;3.07;;
5977;SDS011;3015;51.390;12.256;2022-09-23T14:58:12;3.07;;;2.90;;
5977;SDS011;3015;51.390;12.256;2022-09-23T15:00:49;3.00;;;2.80;;
5977;SDS011;3015;51.390;12.256;2022-09-23T15:03:19;3.30;;;3.10;;
5977;SDS011;3015;51.390;12.256;2022-09-23T15:05:46;2.90;;;2.80;;
5977;SDS011;3015;51.390;12.256;2022-09-23T15:08:17;3.57;;;3.30;;
5977;SDS011;3015;51.390;12.256;2022-09-23T15:10:45;3.53;;;3.33;;
5977;SDS011;3015;51.390;12.256;2022-09-23T15:13:13;3.00;;;2.80;;
5977;SDS011;3015;51.390;12.256;2022-09-23T15:15:41;3.17;;;2.97;;
5977;SDS011;3015;51.390;12.256;2022-09-23T15:18:19;3.43;;;3.23;;
5977;SDS011;3015;51.390;12.256;2022-09-23T15:20:51;3.20;;;3.00;;
5977;SDS011;3015;51.390;12.256;2022-09-23T15:23:33;3.27;;;3.07;;
5977;SDS011;3015;51.390;12.256;2022-09-23T15:26:04;3.53;;;3.33;;
5977;SDS011;3015;51.390;12.256;2022-09-23T15:28:31;3.43;;;3.23;;
5977;SDS011;3015;51.390;12.256;2022-09-23T15:30:57;3.27;;;3.13;;
5977;SDS011;3015;51.390;12.256;2022-09-23T15:33:22;2.67;;;2.57;;
5977;SDS011;3015;51.390;12.256;2022-09-23T15:35:52;3.50;;;3.20;;
5977;SDS011;3015;51.390;12.256;2022-09-23T15:38:19;3.40;;;3.10;;
5977;SDS011;3015;51.390;12.256;2022-09-23T15:40:45;5.17;;;3.60;;
5977;SDS011;3015;51.390;12.256;2022-09-23T15:43:15;3.50;;;3.30;;
5977;SDS011;3015;51.390;12.256;2022-09-23T15:45:43;3.60;;;3.40;;
5977;SDS011;3015;51.390;12.256;2022-09-23T15:48:15;3.63;;;3.33;;
5977;SDS011;3015;51.390;12.256;2022-09-23T15:50:46;3.00;;;2.90;;
5977;SDS011;3015;51.390;12.256;2022-09-23T15:53:19;4.20;;;3.90;;
5977;SDS011;3015;51.390;12.256;2022-09-23T15:55:49;3.90;;;3.60;;
5977;SDS011;3015;51.390;12.256;2022-09-23T15:58:16;3.23;;;3.03;;
5977;SDS011;3015;51.390;12.256;2022-09-23T16:00:42;4.80;;;3.07;;
5977;SDS011;3015;51.390;12.256;2022-09-23T16:03:09;4.03;;;3.83;;
5977;SDS011;3015;51.390;12.256;2022-09-23T16:05:38;4.63;;;4.30;;
5977;SDS011;3015;51.390;12.256;2022-09-23T16:08:08;4.33;;;3.90;;
5977;SDS011;3015;51.390;12.256;2022-09-23T16:10:34;3.60;;;3.40;;
5977;SDS011;3015;51.390;12.256;2022-09-23T16:13:02;3.77;;;3.57;;
5977;SDS011;3015;51.390;12.256;2022-09-23T16:15:30;4.10;;;3.37;;
5977;SDS011;3015;51.390;12.256;2022-09-23T16:17:57;3.63;;;3.37;;
5977;SDS011;3015;51.390;12.256;2022-09-23T16:20:23;3.80;;;3.60;;
5977;SDS011;3015;51.390;12.256;2022-09-23T16:25:24;4.13;;;3.93;;
5977;SDS011;3015;51.390;12.256;2022-09-23T16:27:52;4.10;;;3.80;;
5977;SDS011;3015;51.390;12.256;2022-09-23T16:30:20;3.87;;;3.67;;
5977;SDS011;3015;51.390;12.256;2022-09-23T16:32:46;4.10;;;3.77;;
5977;SDS011;3015;51.390;12.256;2022-09-23T16:35:15;4.10;;;3.90;;
5977;SDS011;3015;51.390;12.256;2022-09-23T16:37:41;4.30;;;4.03;;
5977;SDS011;3015;51.390;12.256;2022-09-23T16:40:12;4.70;;;4.50;;
5977;SDS011;3015;51.390;12.256;2022-09-23T16:42:40;4.97;;;4.77;;
5977;SDS011;3015;51.390;12.256;2022-09-23T16:45:06;4.80;;;4.57;;
5977;SDS011;3015;51.390;12.256;2022-09-23T16:47:33;4.90;;;4.60;;
5977;SDS011;3015;51.390;12.256;2022-09-23T16:49:59;4.57;;;4.27;;
5977;SDS011;3015;51.390;12.256;2022-09-23T16:52:25;3.70;;;3.50;;
5977;SDS011;3015;51.390;12.256;2022-09-23T16:54:53;4.20;;;4.00;;
5977;SDS011;3015;51.390;12.256;2022-09-23T16:57:19;4.07;;;3.77;;
5977;SDS011;3015;51.390;12.256;2022-09-23T16:59:44;4.43;;;4.23;;
5977;SDS011;3015;51.390;12.256;2022-09-23T17:02:28;4.50;;;4.30;;
5977;SDS011;3015;51.390;12.256;2022-09-23T17:05:12;6.07;;;5.67;;
5977;SDS011;3015;51.390;12.256;2022-09-23T17:07:40;4.70;;;4.40;;
5977;SDS011;3015;51.390;12.256;2022-09-23T17:10:06;4.60;;;4.30;;
5977;SDS011;3015;51.390;12.256;2022-09-23T17:12:32;5.57;;;5.17;;
5977;SDS011;3015;51.390;12.256;2022-09-23T17:14:59;4.93;;;4.63;;
5977;SDS011;3015;51.390;12.256;2022-09-23T17:17:25;5.27;;;4.97;;
5977;SDS011;3015;51.390;12.256;2022-09-23T17:19:52;5.20;;;4.90;;
5977;SDS011;3015;51.390;12.256;2022-09-23T17:22:17;6.07;;;5.43;;
5977;SDS011;3015;51.390;12.256;2022-09-23T17:24:44;5.47;;;5.07;;
5977;SDS011;3015;51.390;12.256;2022-09-23T17:27:09;5.50;;;5.10;;
5977;SDS011;3015;51.390;12.256;2022-09-23T17:29:35;6.00;;;5.60;;
5977;SDS011;3015;51.390;12.256;2022-09-23T17:32:00;5.90;;;5.50;;
5977;SDS011;3015;51.390;12.256;2022-09-23T17:34:28;5.85;;;5.38;;
5977;SDS011;3015;51.390;12.256;2022-09-23T17:36:57;6.53;;;6.13;;
5977;SDS011;3015;51.390;12.256;2022-09-23T17:39:22;6.50;;;5.63;;
5977;SDS011;3015;51.390;12.256;2022-09-23T17:41:48;6.47;;;5.97;;
5977;SDS011;3015;51.390;12.256;2022-09-23T17:44:14;5.93;;;5.53;;
5977;SDS011;3015;51.390;12.256;2022-09-23T17:46:41;5.90;;;5.50;;
5977;SDS011;3015;51.390;12.256;2022-09-23T17:49:07;6.60;;;6.10;;
5977;SDS011;3015;51.390;12.256;2022-09-23T17:51:33;7.87;;;7.27;;
5977;SDS011;3015;51.390;12.256;2022-09-23T17:53:59;6.80;;;6.30;;
5977;SDS011;3015;51.390;12.256;2022-09-23T17:56:25;7.10;;;6.60;;
5977;SDS011;3015;51.390;12.256;2022-09-23T17:58:53;9.17;;;8.47;;
5977;SDS011;3015;51.390;12.256;2022-09-23T18:01:23;7.43;;;6.93;;
5977;SDS011;3015;51.390;12.256;2022-09-23T18:03:53;7.73;;;7.07;;
5977;SDS011;3015;51.390;12.256;2022-09-23T18:06:21;7.37;;;6.87;;
5977;SDS011;3015;51.390;12.256;2022-09-23T18:08:49;7.50;;;7.00;;
5977;SDS011;3015;51.390;12.256;2022-09-23T18:11:19;8.10;;;7.40;;
5977;SDS011;3015;51.390;12.256;2022-09-23T18:13:53;8.67;;;7.87;;
5977;SDS011;3015;51.390;12.256;2022-09-23T18:16:23;8.53;;;7.93;;
5977;SDS011;3015;51.390;12.256;2022-09-23T18:18:52;8.93;;;8.10;;
5977;SDS011;3015;51.390;12.256;2022-09-23T18:21:20;8.67;;;7.97;;
5977;SDS011;3015;51.390;12.256;2022-09-23T18:23:46;9.37;;;8.07;;